createdAt,value
2016-02-03T00:00:25.977Z,-3.35
2016-02-03T00:00:40.086Z,-3.29
2016-02-03T00:00:54.633Z,-3.18
2016-02-03T00:01:08.683Z,-3.21
2016-02-03T00:01:23.246Z,-3.12
2016-02-03T00:01:37.480Z,-3.04
2016-02-03T00:02:20.499Z,-3.24
2016-02-03T00:02:34.452Z,-3.29
2016-02-03T00:02:48.827Z,-3.29
2016-02-03T00:03:17.002Z,-3.3
2016-02-03T00:03:30.970Z,-3.32
2016-02-03T00:03:58.848Z,-3.36
2016-02-03T00:04:13.302Z,-3.15
2016-02-03T00:04:27.036Z,-3.22
2016-02-03T00:04:55.020Z,-3.25
2016-02-03T00:05:12.132Z,-3.21
2016-02-03T00:05:29.132Z,-3.24
2016-02-03T00:06:14.260Z,-3.32
2016-02-03T00:06:43.166Z,-3.36
2016-02-03T00:07:11.247Z,-3.45
2016-02-03T00:07:28.466Z,-3.48
2016-02-03T00:07:45.513Z,-3.42
2016-02-03T00:08:27.875Z,-3.47
2016-02-03T00:08:45.359Z,-3.54
2016-02-03T00:08:59.408Z,-3.66
2016-02-03T00:09:13.768Z,-3.63
2016-02-03T00:09:59.238Z,-3.51
2016-02-03T00:10:13.629Z,-3.5
2016-02-03T00:10:30.379Z,-3.48
2016-02-03T00:10:43.785Z,-3.5
2016-02-03T00:11:25.899Z,-3.53
2016-02-03T00:11:38.946Z,-3.6
2016-02-03T00:11:52.696Z,-3.69
2016-02-03T00:12:20.573Z,-3.76
2016-02-03T00:12:49.041Z,-3.77
2016-02-03T00:13:02.966Z,-3.72
2016-02-03T00:13:30.888Z,-3.66
2016-02-03T00:13:45.092Z,-3.5
2016-02-03T00:15:10.162Z,-3.75
2016-02-03T00:15:37.943Z,-3.8
2016-02-03T00:15:55.646Z,-3.86
2016-02-03T00:16:09.679Z,-3.94
2016-02-03T00:17:06.932Z,-3.91
2016-02-03T00:17:21.542Z,-3.9
2016-02-03T00:17:35.838Z,-3.93
2016-02-03T00:17:49.901Z,-3.9
2016-02-03T00:18:03.778Z,-3.91
2016-02-03T00:18:17.747Z,-3.87
2016-02-03T00:19:00.391Z,-3.88
2016-02-03T00:19:14.657Z,-3.91
2016-02-03T00:19:29.235Z,-3.91
2016-02-03T00:19:43.798Z,-4
2016-02-03T00:19:57.844Z,-4.11
2016-02-03T00:20:11.910Z,-4.08
2016-02-03T00:20:28.801Z,-4.19
2016-02-03T00:20:43.082Z,-4.25
2016-02-03T00:20:57.379Z,-4.22
2016-02-03T00:21:14.272Z,-4.25
2016-02-03T00:21:28.554Z,-4.06
2016-02-03T00:21:48.616Z,-4.12
2016-02-03T00:22:02.649Z,-4.08
2016-02-03T00:22:19.977Z,-4.11
2016-02-03T00:22:37.134Z,-4.12
2016-02-03T00:22:54.321Z,-4.15
2016-02-03T00:23:08.120Z,-4.22
2016-02-03T00:23:38.901Z,-4.18
2016-02-03T00:23:52.936Z,-4.09
2016-02-03T00:24:07.144Z,-4.08
2016-02-03T00:24:35.331Z,-4.27
2016-02-03T00:24:49.394Z,-4.36
2016-02-03T00:25:03.849Z,-4.34
2016-02-03T00:25:17.802Z,-4.39
2016-02-03T00:25:34.724Z,-4.48
2016-02-03T00:25:48.786Z,-4.53
2016-02-03T00:26:16.727Z,-4.51
2016-02-03T00:26:35.039Z,-4.41
2016-02-03T00:26:48.727Z,-4.41
2016-02-03T00:27:17.104Z,-4.33
2016-02-03T00:27:31.385Z,-4.22
2016-02-03T00:27:45.213Z,-4.25
2016-02-03T00:27:59.204Z,-4.25
2016-02-03T00:28:27.033Z,-4.23
2016-02-03T00:28:41.501Z,-4.25
2016-02-03T00:29:09.957Z,-4.43
2016-02-03T00:29:44.004Z,-4.48
2016-02-03T00:29:57.942Z,-4.59
2016-02-03T00:30:15.429Z,-4.71
2016-02-03T00:30:30.007Z,-4.72
2016-02-03T00:30:46.820Z,-4.68
2016-02-03T00:31:04.103Z,-4.66
2016-02-03T00:31:17.884Z,-4.71
2016-02-03T00:31:31.995Z,-4.65
2016-02-03T00:31:45.963Z,-4.72
2016-02-03T00:31:59.716Z,-4.73
2016-02-03T00:32:14.435Z,-4.71
2016-02-03T00:32:30.462Z,-4.72
2016-02-03T00:32:43.541Z,-4.71
2016-02-03T00:32:58.119Z,-4.68
2016-02-03T00:33:15.214Z,-4.75
2016-02-03T00:34:04.000Z,-4.87
2016-02-03T00:34:18.328Z,-4.98
2016-02-03T00:34:32.297Z,-4.92
2016-02-03T00:34:47.156Z,-4.94
2016-02-03T00:35:43.470Z,-5.01
2016-02-03T00:35:57.908Z,-5.04
2016-02-03T00:36:17.677Z,-5.07
2016-02-03T00:36:32.208Z,-5.04
2016-02-03T00:36:59.960Z,-5.12
2016-02-03T00:37:36.914Z,-5.17
2016-02-03T00:37:51.258Z,-5.11
2016-02-03T00:38:05.573Z,-5.14
2016-02-03T00:38:36.823Z,-5.24
2016-02-03T00:38:51.011Z,-5.24
2016-02-03T00:39:04.982Z,-5.27
2016-02-03T00:39:19.482Z,-5.26
2016-02-03T00:39:33.139Z,-5.29
2016-02-03T00:39:52.951Z,-5.24
2016-02-03T00:40:07.328Z,-5.27
2016-02-03T00:40:21.406Z,-5.3
2016-02-03T00:40:36.000Z,-5.33
2016-02-03T00:40:49.703Z,-5.27
2016-02-03T00:41:04.062Z,-5.33
2016-02-03T00:41:22.077Z,-5.31
2016-02-03T00:41:38.952Z,-5.38
2016-02-03T00:41:56.687Z,-5.48
2016-02-03T00:42:28.006Z,-5.35
2016-02-03T00:42:56.131Z,-5.38
2016-02-03T00:43:10.383Z,-5.4
2016-02-03T00:43:39.216Z,-5.44
2016-02-03T00:43:54.029Z,-5.42
2016-02-03T00:44:08.048Z,-5.38
2016-02-03T00:44:22.345Z,-5.37
2016-02-03T00:44:37.173Z,-5.47
2016-02-03T00:44:53.564Z,-5.38
2016-02-03T00:45:07.738Z,-5.38
2016-02-03T00:45:24.550Z,-5.41
2016-02-03T00:45:52.706Z,-5.48
2016-02-03T00:46:09.584Z,-5.56
2016-02-03T00:46:29.506Z,-5.6
2016-02-03T00:46:43.522Z,-5.6
2016-02-03T00:46:59.584Z,-5.58
2016-02-03T00:47:13.758Z,-5.59
2016-02-03T00:47:41.805Z,-5.52
2016-02-03T00:47:56.149Z,-5.52
2016-02-03T00:48:19.714Z,-5.55
2016-02-03T00:48:36.761Z,-5.48
2016-02-03T00:48:50.558Z,-5.5
2016-02-03T00:49:18.530Z,-5.44
2016-02-03T00:49:32.563Z,-5.38
2016-02-03T00:50:00.550Z,-5.4
2016-02-03T00:50:24.003Z,-5.42
2016-02-03T00:50:41.159Z,-5.4
2016-02-03T00:50:58.190Z,-5.31
2016-02-03T00:51:30.068Z,-5.41
2016-02-03T00:51:57.913Z,-5.4
2016-02-03T00:52:39.696Z,-5.37
2016-02-03T00:52:53.649Z,-5.41
2016-02-03T00:53:07.624Z,-5.41
2016-02-03T00:53:21.858Z,-5.55
2016-02-03T00:53:49.796Z,-5.56
2016-02-03T00:54:03.985Z,-5.63
2016-02-03T00:54:17.970Z,-5.55
2016-02-03T00:54:32.188Z,-5.65
2016-02-03T00:55:17.145Z,-5.86
2016-02-03T00:55:31.145Z,-5.84
2016-02-03T00:55:45.160Z,-5.81
2016-02-03T00:55:59.395Z,-5.79
2016-02-03T00:56:13.912Z,-5.97
2016-02-03T00:56:27.959Z,-5.87
2016-02-03T00:56:45.663Z,-5.98
2016-02-03T00:56:59.929Z,-6.04
2016-02-03T00:57:28.277Z,-6.02
2016-02-03T00:57:42.058Z,-5.99
2016-02-03T00:58:09.372Z,-6.01
2016-02-03T00:58:23.372Z,-6.02
2016-02-03T00:58:37.169Z,-6.02
2016-02-03T00:58:50.982Z,-6.05
2016-02-03T00:59:04.609Z,-6.08
2016-02-03T00:59:19.093Z,-6.08
2016-02-03T00:59:36.656Z,-6.18
2016-02-03T00:59:51.062Z,-6.16
2016-02-03T01:00:07.971Z,-6.18
2016-02-03T01:00:23.174Z,-6.2
2016-02-03T01:00:50.955Z,-6.25
2016-02-03T01:01:04.568Z,-6.2
2016-02-03T01:01:33.755Z,-6.23
2016-02-03T01:02:02.790Z,-6.36
2016-02-03T01:02:17.461Z,-6.38
2016-02-03T01:02:31.383Z,-6.37
2016-02-03T01:02:59.977Z,-6.38
2016-02-03T01:03:14.979Z,-6.34
2016-02-03T01:03:28.792Z,-6.33
2016-02-03T01:03:59.763Z,-6.33
2016-02-03T01:04:27.438Z,-6.43
2016-02-03T01:04:41.594Z,-6.3
2016-02-03T01:04:56.001Z,-6.34
2016-02-03T01:05:38.190Z,-6.28
2016-02-03T01:05:52.268Z,-6.4
2016-02-03T01:06:06.914Z,-6.38
2016-02-03T01:06:27.101Z,-6.31
2016-02-03T01:06:55.101Z,-6.38
2016-02-03T01:07:09.635Z,-6.33
2016-02-03T01:07:24.322Z,-6.31
2016-02-03T01:07:38.635Z,-6.3
2016-02-03T01:08:06.856Z,-6.3
2016-02-03T01:08:20.763Z,-6.25
2016-02-03T01:08:48.830Z,-6.12
2016-02-03T01:09:06.504Z,-6.08
2016-02-03T01:09:20.504Z,-6.07
2016-02-03T01:09:51.926Z,-6.08
2016-02-03T01:10:05.367Z,-6.02
2016-02-03T01:10:18.930Z,-6.16
2016-02-03T01:10:35.680Z,-6.2
2016-02-03T01:10:49.461Z,-6.2
2016-02-03T01:11:04.338Z,-6.2
2016-02-03T01:11:32.400Z,-6.34
2016-02-03T01:11:46.479Z,-6.33
2016-02-03T01:12:00.557Z,-6.33
2016-02-03T01:12:15.466Z,-6.36
2016-02-03T01:12:29.700Z,-6.37
2016-02-03T01:12:43.591Z,-6.36
2016-02-03T01:12:57.575Z,-6.34
2016-02-03T01:13:11.765Z,-6.43
2016-02-03T01:13:42.891Z,-6.46
2016-02-03T01:13:57.016Z,-6.46
2016-02-03T01:14:10.877Z,-6.38
2016-02-03T01:14:24.518Z,-6.4
2016-02-03T01:14:38.393Z,-6.41
2016-02-03T01:14:52.252Z,-6.49
2016-02-03T01:15:07.147Z,-6.48
2016-02-03T01:15:49.209Z,-6.48
2016-02-03T01:16:03.978Z,-6.43
2016-02-03T01:16:17.806Z,-6.46
2016-02-03T01:16:31.931Z,-6.49
2016-02-03T01:16:46.400Z,-6.41
2016-02-03T01:17:00.556Z,-6.54
2016-02-03T01:17:14.917Z,-6.55
2016-02-03T01:17:32.417Z,-6.52
2016-02-03T01:18:00.199Z,-6.59
2016-02-03T01:18:14.482Z,-6.54
2016-02-03T01:18:28.748Z,-6.6
2016-02-03T01:18:45.779Z,-6.58
2016-02-03T01:18:59.669Z,-6.68
2016-02-03T01:19:28.188Z,-6.6
2016-02-03T01:19:42.172Z,-6.65
2016-02-03T01:20:24.520Z,-6.67
2016-02-03T01:20:38.909Z,-6.68
2016-02-03T01:20:53.503Z,-6.67
2016-02-03T01:21:08.833Z,-6.7
2016-02-03T01:21:22.223Z,-6.7
2016-02-03T01:21:39.505Z,-6.67
2016-02-03T01:21:56.395Z,-6.7
2016-02-03T01:22:10.428Z,-6.71
2016-02-03T01:22:24.241Z,-6.87
2016-02-03T01:22:46.225Z,-6.76
2016-02-03T01:23:13.885Z,-6.73
2016-02-03T01:23:27.853Z,-6.67
2016-02-03T01:23:56.653Z,-6.76
2016-02-03T01:24:24.843Z,-6.87
2016-02-03T01:24:52.952Z,-6.84
2016-02-03T01:25:21.112Z,-6.83
2016-02-03T01:25:38.222Z,-6.84
2016-02-03T01:25:52.315Z,-6.91
2016-02-03T01:26:09.522Z,-6.87
2016-02-03T01:26:24.115Z,-6.88
2016-02-03T01:26:38.600Z,-6.94
2016-02-03T01:26:52.678Z,-6.91
2016-02-03T01:27:06.977Z,-6.91
2016-02-03T01:27:21.539Z,-6.92
2016-02-03T01:27:35.414Z,-6.84
2016-02-03T01:28:03.699Z,-6.78
2016-02-03T01:28:17.778Z,-6.71
2016-02-03T01:28:31.762Z,-6.81
2016-02-03T01:28:45.824Z,-6.76
2016-02-03T01:29:00.090Z,-6.83
2016-02-03T01:29:45.656Z,-6.65
2016-02-03T01:29:59.952Z,-6.74
2016-02-03T01:30:17.001Z,-6.63
2016-02-03T01:30:45.126Z,-6.59
2016-02-03T01:30:59.548Z,-6.58
2016-02-03T01:31:13.567Z,-6.65
2016-02-03T01:31:27.911Z,-6.59
2016-02-03T01:31:55.911Z,-6.58
2016-02-03T01:32:09.898Z,-6.49
2016-02-03T01:32:23.804Z,-6.55
2016-02-03T01:32:37.882Z,-6.44
2016-02-03T01:32:51.960Z,-6.46
2016-02-03T01:33:19.854Z,-6.51
2016-02-03T01:33:34.479Z,-6.51
2016-02-03T01:33:48.307Z,-6.54
2016-02-03T01:34:16.606Z,-6.52
2016-02-03T01:34:30.856Z,-6.55
2016-02-03T01:34:45.169Z,-6.58
2016-02-03T01:35:16.485Z,-6.58
2016-02-03T01:35:30.610Z,-6.54
2016-02-03T01:36:27.596Z,-6.41
2016-02-03T01:36:55.768Z,-6.36
2016-02-03T01:37:10.099Z,-6.38
2016-02-03T01:37:27.068Z,-6.38
2016-02-03T01:37:41.318Z,-6.37
2016-02-03T01:38:09.258Z,-6.23
2016-02-03T01:38:23.070Z,-6.19
2016-02-03T01:38:37.805Z,-6.12
2016-02-03T01:38:51.930Z,-6.15
2016-02-03T01:39:06.401Z,-6.15
2016-02-03T01:39:19.933Z,-6.18
2016-02-03T01:39:36.965Z,-6.15
2016-02-03T01:39:50.996Z,-6.16
2016-02-03T01:40:05.311Z,-6.19
2016-02-03T01:40:33.374Z,-6.2
2016-02-03T01:40:47.905Z,-6.19
2016-02-03T01:41:01.780Z,-6.18
2016-02-03T01:41:29.485Z,-6.19
2016-02-03T01:41:43.298Z,-6.23
2016-02-03T01:41:57.548Z,-6.25
2016-02-03T01:42:26.504Z,-6.31
2016-02-03T01:42:40.457Z,-6.36
2016-02-03T01:42:57.613Z,-6.41
2016-02-03T01:43:25.819Z,-6.48
2016-02-03T01:43:40.085Z,-6.44
2016-02-03T01:43:54.085Z,-6.43
2016-02-03T01:44:24.276Z,-6.55
2016-02-03T01:44:38.729Z,-6.54
2016-02-03T01:44:52.791Z,-6.68
2016-02-03T01:45:07.043Z,-6.65
2016-02-03T01:45:21.215Z,-6.62
2016-02-03T01:45:49.746Z,-6.68
2016-02-03T01:46:18.312Z,-6.7
2016-02-03T01:46:32.749Z,-6.76
2016-02-03T01:46:46.656Z,-6.78
2016-02-03T01:47:45.861Z,-6.83
2016-02-03T01:47:59.595Z,-6.84
2016-02-03T01:48:13.896Z,-6.87
2016-02-03T01:48:28.365Z,-6.81
2016-02-03T01:48:41.771Z,-6.83
2016-02-03T01:48:55.958Z,-6.74
2016-02-03T01:49:10.210Z,-6.78
2016-02-03T01:49:24.507Z,-6.68
2016-02-03T01:49:38.664Z,-6.7
2016-02-03T01:49:52.867Z,-6.65
2016-02-03T01:50:06.854Z,-6.71
2016-02-03T01:50:20.995Z,-6.65
2016-02-03T01:50:35.229Z,-6.65
2016-02-03T01:50:49.979Z,-6.52
2016-02-03T01:51:04.044Z,-6.55
2016-02-03T01:51:17.669Z,-6.44
2016-02-03T01:51:31.951Z,-6.43
2016-02-03T01:51:46.060Z,-6.43
2016-02-03T01:52:00.013Z,-6.54
2016-02-03T01:52:14.251Z,-6.52
2016-02-03T01:52:42.235Z,-6.55
2016-02-03T01:52:56.096Z,-6.55
2016-02-03T01:53:24.865Z,-6.54
2016-02-03T01:53:38.943Z,-6.48
2016-02-03T01:54:06.838Z,-6.33
2016-02-03T01:55:05.730Z,-6.26
2016-02-03T01:55:19.809Z,-6.19
2016-02-03T01:55:36.652Z,-6.22
2016-02-03T01:55:50.793Z,-6.19
2016-02-03T01:56:32.718Z,-6.02
2016-02-03T01:56:49.577Z,-6.07
2016-02-03T01:57:31.501Z,-5.94
2016-02-03T01:57:45.189Z,-5.87
2016-02-03T01:57:59.595Z,-5.94
2016-02-03T01:58:13.395Z,-5.87
2016-02-03T01:58:27.410Z,-5.84
2016-02-03T01:58:41.915Z,-5.69
2016-02-03T01:58:56.212Z,-5.62
2016-02-03T01:59:10.215Z,-5.62
2016-02-03T01:59:24.715Z,-5.7
2016-02-03T01:59:52.996Z,-5.8
2016-02-03T02:00:50.248Z,-5.94
2016-02-03T02:01:07.204Z,-5.84
2016-02-03T02:01:27.017Z,-6.04
2016-02-03T02:01:42.079Z,-5.95
2016-02-03T02:01:57.345Z,-5.92
2016-02-03T02:02:53.770Z,-5.84
2016-02-03T02:03:07.851Z,-5.84
2016-02-03T02:03:22.164Z,-5.79
2016-02-03T02:03:36.257Z,-5.83
2016-02-03T02:03:50.757Z,-5.81
2016-02-03T02:04:18.619Z,-5.8
2016-02-03T02:04:31.494Z,-5.74
2016-02-03T02:04:45.322Z,-5.7
2016-02-03T02:05:02.384Z,-5.66
2016-02-03T02:05:15.997Z,-5.56
2016-02-03T02:05:29.715Z,-5.52
2016-02-03T02:05:43.903Z,-5.63
2016-02-03T02:06:01.700Z,-5.56
2016-02-03T02:06:16.108Z,-5.68
2016-02-03T02:06:30.608Z,-5.73
2016-02-03T02:06:59.561Z,-5.69
2016-02-03T02:07:27.534Z,-5.73
2016-02-03T02:07:41.284Z,-5.73
2016-02-03T02:07:58.471Z,-5.63
2016-02-03T02:08:12.145Z,-5.65
2016-02-03T02:08:26.255Z,-5.73
2016-02-03T02:08:39.255Z,-5.74
2016-02-03T02:08:53.661Z,-5.7
2016-02-03T02:09:36.742Z,-5.62
2016-02-03T02:09:53.898Z,-5.6
2016-02-03T02:10:08.760Z,-5.56
2016-02-03T02:10:23.291Z,-5.65
2016-02-03T02:10:51.823Z,-5.52
2016-02-03T02:11:20.405Z,-5.6
2016-02-03T02:11:34.671Z,-5.56
2016-02-03T02:11:49.186Z,-5.56
2016-02-03T02:12:03.343Z,-5.55
2016-02-03T02:12:17.954Z,-5.62
2016-02-03T02:12:35.626Z,-5.68
2016-02-03T02:12:49.813Z,-5.69
2016-02-03T02:13:31.941Z,-5.7
2016-02-03T02:13:49.363Z,-5.7
2016-02-03T02:14:03.441Z,-5.77
2016-02-03T02:14:17.912Z,-5.74
2016-02-03T02:15:06.451Z,-5.77
2016-02-03T02:15:34.326Z,-5.83
2016-02-03T02:15:48.076Z,-5.87
2016-02-03T02:16:01.733Z,-5.86
2016-02-03T02:16:16.017Z,-5.87
2016-02-03T02:16:31.251Z,-5.84
2016-02-03T02:16:45.283Z,-5.8
2016-02-03T02:16:59.845Z,-5.84
2016-02-03T02:18:38.476Z,-5.84
2016-02-03T02:18:52.976Z,-5.81
2016-02-03T02:19:07.213Z,-5.84
2016-02-03T02:19:21.135Z,-5.87
2016-02-03T02:19:35.370Z,-5.87
2016-02-03T02:19:49.166Z,-5.91
2016-02-03T02:20:02.979Z,-5.86
2016-02-03T02:20:16.684Z,-5.89
2016-02-03T02:20:31.200Z,-5.87
2016-02-03T02:20:45.200Z,-5.92
2016-02-03T02:20:59.512Z,-5.81
2016-02-03T02:21:16.218Z,-5.86
2016-02-03T02:21:33.687Z,-5.84
2016-02-03T02:21:48.203Z,-5.87
2016-02-03T02:22:02.453Z,-5.84
2016-02-03T02:22:16.276Z,-5.83
2016-02-03T02:22:33.729Z,-5.86
2016-02-03T02:22:48.120Z,-5.84
2016-02-03T02:23:04.854Z,-5.84
2016-02-03T02:23:21.809Z,-5.83
2016-02-03T02:23:52.872Z,-5.83
2016-02-03T02:24:06.531Z,-5.81
2016-02-03T02:24:38.062Z,-5.87
2016-02-03T02:24:52.125Z,-5.81
2016-02-03T02:25:05.925Z,-5.86
2016-02-03T02:25:19.800Z,-5.87
2016-02-03T02:25:34.034Z,-5.92
2016-02-03T02:25:48.065Z,-5.94
2016-02-03T02:26:02.190Z,-5.98
2016-02-03T02:26:16.287Z,-5.94
2016-02-03T02:26:30.225Z,-5.98
2016-02-03T02:26:44.162Z,-5.89
2016-02-03T02:26:58.162Z,-5.95
2016-02-03T02:27:12.258Z,-5.99
2016-02-03T02:27:26.430Z,-5.95
2016-02-03T02:28:08.776Z,-6.01
2016-02-03T02:28:21.745Z,-5.94
2016-02-03T02:28:38.870Z,-6.04
2016-02-03T02:28:52.839Z,-6.01
2016-02-03T02:29:21.950Z,-6.01
2016-02-03T02:29:36.122Z,-5.99
2016-02-03T02:30:05.451Z,-5.99
2016-02-03T02:30:33.752Z,-6.02
2016-02-03T02:31:16.051Z,-6.02
2016-02-03T02:31:29.879Z,-6.01
2016-02-03T02:31:43.910Z,-6.02
2016-02-03T02:32:01.115Z,-6.01
2016-02-03T02:32:21.118Z,-6.04
2016-02-03T02:33:18.012Z,-6.07
2016-02-03T02:33:35.231Z,-6.07
2016-02-03T02:33:49.418Z,-6.02
2016-02-03T02:34:03.762Z,-5.99
2016-02-03T02:34:17.829Z,-6.02
2016-02-03T02:34:32.594Z,-6.02
2016-02-03T02:34:46.579Z,-6.04
2016-02-03T02:35:15.221Z,-6.04
2016-02-03T02:35:29.487Z,-6.04
2016-02-03T02:35:46.268Z,-6.07
2016-02-03T02:36:00.424Z,-6.1
2016-02-03T02:36:28.426Z,-6.08
2016-02-03T02:36:45.473Z,-6.04
2016-02-03T02:37:02.836Z,-6.02
2016-02-03T02:37:16.964Z,-6.04
2016-02-03T02:37:30.979Z,-6.04
2016-02-03T02:37:45.401Z,-6.02
2016-02-03T02:37:59.151Z,-6.01
2016-02-03T02:38:13.684Z,-5.95
2016-02-03T02:38:27.809Z,-5.89
2016-02-03T02:38:41.872Z,-5.94
2016-02-03T02:38:56.372Z,-5.98
2016-02-03T02:39:38.595Z,-5.99
2016-02-03T02:39:52.704Z,-6.05
2016-02-03T02:40:41.315Z,-6.08
2016-02-03T02:40:55.878Z,-6.05
2016-02-03T02:41:10.553Z,-6.01
2016-02-03T02:41:27.975Z,-6.01
2016-02-03T02:41:42.446Z,-5.94
2016-02-03T02:41:56.149Z,-5.84
2016-02-03T02:42:10.198Z,-5.91
2016-02-03T02:42:27.104Z,-5.95
2016-02-03T02:42:55.229Z,-5.91
2016-02-03T02:43:23.921Z,-5.98
2016-02-03T02:43:37.983Z,-6.04
2016-02-03T02:43:52.030Z,-6.02
2016-02-03T02:44:06.155Z,-6.05
2016-02-03T02:44:20.423Z,-6.02
2016-02-03T02:44:34.314Z,-5.99
2016-02-03T02:44:48.907Z,-6.01
2016-02-03T02:45:02.579Z,-5.99
2016-02-03T02:45:16.676Z,-6.02
2016-02-03T02:45:36.832Z,-6.05
2016-02-03T02:45:54.145Z,-6.08
2016-02-03T02:46:07.959Z,-6.05
2016-02-03T02:46:21.928Z,-6.1
2016-02-03T02:46:35.522Z,-5.99
2016-02-03T02:47:03.881Z,-5.89
2016-02-03T02:47:32.118Z,-5.79
2016-02-03T02:48:17.231Z,-5.81
2016-02-03T02:48:35.621Z,-5.91
2016-02-03T02:48:49.543Z,-5.92
2016-02-03T02:49:17.723Z,-5.99
2016-02-03T02:49:32.020Z,-6.01
2016-02-03T02:50:03.348Z,-6.02
2016-02-03T02:50:16.538Z,-6.01
2016-02-03T02:50:30.631Z,-5.99
2016-02-03T02:50:44.913Z,-5.99
2016-02-03T02:51:13.477Z,-6.01
2016-02-03T02:51:26.977Z,-5.95
2016-02-03T02:51:41.290Z,-6.07
2016-02-03T02:52:09.356Z,-5.98
2016-02-03T02:52:23.294Z,-5.94
2016-02-03T02:52:51.356Z,-6.05
2016-02-03T02:53:05.247Z,-5.99
2016-02-03T02:53:19.031Z,-6.02
2016-02-03T02:53:47.063Z,-6.04
2016-02-03T02:54:01.157Z,-6.02
2016-02-03T02:54:15.206Z,-6.05
2016-02-03T02:54:57.737Z,-6.07
2016-02-03T02:55:11.676Z,-5.98
2016-02-03T02:55:39.483Z,-6.05
2016-02-03T02:56:00.483Z,-6.16
2016-02-03T02:56:14.967Z,-6.16
2016-02-03T02:56:41.568Z,-6.2
2016-02-03T02:57:11.197Z,-6.13
2016-02-03T02:57:25.775Z,-6.13
2016-02-03T02:58:08.810Z,-6.16
2016-02-03T02:58:30.628Z,-6.15
2016-02-03T02:59:03.515Z,-6.18
2016-02-03T02:59:17.282Z,-6.13
2016-02-03T02:59:32.095Z,-6.02
2016-02-03T03:00:15.176Z,-6.07
2016-02-03T03:01:04.238Z,-6.18
2016-02-03T03:02:07.710Z,-6.19
2016-02-03T03:02:21.790Z,-6.18
2016-02-03T03:02:35.712Z,-6.15
2016-02-03T03:03:03.447Z,-6.07
2016-02-03T03:03:17.496Z,-6.07
2016-02-03T03:03:31.528Z,-6.07
2016-02-03T03:03:45.668Z,-6.07
2016-02-03T03:03:59.575Z,-6.04
2016-02-03T03:04:13.484Z,-6.02
2016-02-03T03:04:42.390Z,-6.07
2016-02-03T03:04:56.328Z,-6.1
2016-02-03T03:05:10.736Z,-6.05
2016-02-03T03:05:24.611Z,-6.05
2016-02-03T03:05:52.861Z,-6.07
2016-02-03T03:06:06.830Z,-6.05
2016-02-03T03:06:23.849Z,-6.13
2016-02-03T03:06:37.943Z,-6.19
2016-02-03T03:07:06.099Z,-6.15
2016-02-03T03:07:20.226Z,-6.22
2016-02-03T03:07:34.164Z,-6.07
2016-02-03T03:07:48.351Z,-6.08
2016-02-03T03:08:02.775Z,-6.05
2016-02-03T03:08:20.434Z,-6.12
2016-02-03T03:08:34.403Z,-6.08
2016-02-03T03:08:48.809Z,-6.1
2016-02-03T03:09:16.843Z,-6.1
2016-02-03T03:09:30.703Z,-6.1
2016-02-03T03:09:45.328Z,-6.05
2016-02-03T03:09:59.609Z,-6.05
2016-02-03T03:10:13.830Z,-6.07
2016-02-03T03:10:27.955Z,-6.08
2016-02-03T03:10:41.955Z,-6.07
2016-02-03T03:11:10.705Z,-6.07
2016-02-03T03:11:39.130Z,-5.99
2016-02-03T03:11:53.052Z,-6.05
2016-02-03T03:12:21.336Z,-6.04
2016-02-03T03:12:38.211Z,-6.05
2016-02-03T03:12:52.572Z,-6.07
2016-02-03T03:13:06.697Z,-6.02
2016-02-03T03:13:20.699Z,-6.04
2016-02-03T03:13:34.980Z,-6.08
2016-02-03T03:13:52.215Z,-6.08
2016-02-03T03:14:06.137Z,-6.07
2016-02-03T03:14:20.951Z,-6.05
2016-02-03T03:14:34.998Z,-6.08
2016-02-03T03:14:49.061Z,-6.12
2016-02-03T03:15:03.092Z,-6.1
2016-02-03T03:15:17.111Z,-6.07
2016-02-03T03:15:34.361Z,-6.15
2016-02-03T03:15:48.283Z,-6.18
2016-02-03T03:16:44.521Z,-6.13
2016-02-03T03:16:59.193Z,-6.18
2016-02-03T03:17:13.210Z,-6.13
2016-02-03T03:17:41.226Z,-6.04
2016-02-03T03:17:54.960Z,-6.18
2016-02-03T03:18:12.353Z,-6.16
2016-02-03T03:18:26.259Z,-6.18
2016-02-03T03:18:40.400Z,-6.16
2016-02-03T03:18:54.478Z,-6.07
2016-02-03T03:19:11.606Z,-6.15
2016-02-03T03:19:28.653Z,-6.05
2016-02-03T03:19:42.903Z,-6.15
2016-02-03T03:20:00.013Z,-6.19
2016-02-03T03:20:14.282Z,-6.19
2016-02-03T03:20:56.766Z,-6.18
2016-02-03T03:21:15.863Z,-6.19
2016-02-03T03:22:12.069Z,-6.2
2016-02-03T03:22:29.085Z,-6.19
2016-02-03T03:22:45.991Z,-6.19
2016-02-03T03:22:59.991Z,-6.22
2016-02-03T03:23:14.274Z,-6.16
2016-02-03T03:23:28.993Z,-6.19
2016-02-03T03:23:43.055Z,-6.18
2016-02-03T03:23:55.727Z,-6.23
2016-02-03T03:24:09.790Z,-6.19
2016-02-03T03:24:41.277Z,-6.22
2016-02-03T03:24:58.434Z,-6.2
2016-02-03T03:25:12.797Z,-6.18
2016-02-03T03:25:27.687Z,-6.26
2016-02-03T03:25:55.500Z,-6.18
2016-02-03T03:26:09.969Z,-6.19
2016-02-03T03:26:27.502Z,-6.2
2016-02-03T03:26:41.330Z,-6.23
2016-02-03T03:26:54.846Z,-6.26
2016-02-03T03:27:09.081Z,-6.23
2016-02-03T03:27:23.443Z,-6.25
2016-02-03T03:27:51.506Z,-6.19
2016-02-03T03:28:05.990Z,-6.16
2016-02-03T03:28:20.336Z,-6.12
2016-02-03T03:28:34.414Z,-6.18
2016-02-03T03:28:48.633Z,-6.19
2016-02-03T03:29:02.336Z,-6.16
2016-02-03T03:29:16.746Z,-6.18
2016-02-03T03:29:30.637Z,-6.16
2016-02-03T03:29:44.949Z,-6.2
2016-02-03T03:30:27.686Z,-6.15
2016-02-03T03:30:42.123Z,-6.2
2016-02-03T03:31:27.689Z,-6.16
2016-02-03T03:31:41.360Z,-6.15
2016-02-03T03:32:11.974Z,-6.16
2016-02-03T03:32:40.521Z,-6.19
2016-02-03T03:32:54.646Z,-6.13
2016-02-03T03:33:08.724Z,-6.13
2016-02-03T03:33:22.554Z,-6.08
2016-02-03T03:33:37.054Z,-5.99
2016-02-03T03:33:51.491Z,-6.18
2016-02-03T03:34:05.445Z,-6.2
2016-02-03T03:34:19.323Z,-6.15
2016-02-03T03:34:36.182Z,-6.16
2016-02-03T03:34:53.088Z,-6.19
2016-02-03T03:35:06.994Z,-6.18
2016-02-03T03:35:49.497Z,-6.16
2016-02-03T03:36:03.435Z,-6.22
2016-02-03T03:36:17.718Z,-6.16
2016-02-03T03:36:59.765Z,-6.08
2016-02-03T03:37:13.799Z,-6.19
2016-02-03T03:37:27.768Z,-6.1
2016-02-03T03:37:56.284Z,-6.02
2016-02-03T03:38:10.643Z,-5.99
2016-02-03T03:38:24.864Z,-6.04
2016-02-03T03:38:39.223Z,-5.87
2016-02-03T03:38:53.333Z,-5.97
2016-02-03T03:39:08.661Z,-5.94
2016-02-03T03:39:23.899Z,-5.97
2016-02-03T03:39:37.680Z,-6.01
2016-02-03T03:39:52.399Z,-5.97
2016-02-03T03:40:06.837Z,-5.99
2016-02-03T03:40:34.729Z,-6.02
2016-02-03T03:40:48.917Z,-6.04
2016-02-03T03:41:03.307Z,-6.02
2016-02-03T03:41:17.248Z,-6.04
2016-02-03T03:41:31.373Z,-6.04
2016-02-03T03:41:48.779Z,-5.99
2016-02-03T03:42:34.625Z,-6.02
2016-02-03T03:42:52.453Z,-6.07
2016-02-03T03:43:06.812Z,-6.07
2016-02-03T03:43:38.128Z,-6.05
2016-02-03T03:44:05.865Z,-5.99
2016-02-03T03:45:16.698Z,-5.98
2016-02-03T03:45:45.230Z,-6.07
2016-02-03T03:46:02.386Z,-6.01
2016-02-03T03:46:16.764Z,-6.02
2016-02-03T03:46:30.451Z,-5.98
2016-02-03T03:46:47.529Z,-5.95
2016-02-03T03:47:01.764Z,-5.97
2016-02-03T03:47:15.625Z,-6.01
2016-02-03T03:47:43.844Z,-6.02
2016-02-03T03:48:01.406Z,-5.98
2016-02-03T03:48:18.456Z,-5.99
2016-02-03T03:48:35.988Z,-6.01
2016-02-03T03:48:53.159Z,-5.94
2016-02-03T03:49:21.241Z,-5.95
2016-02-03T03:49:35.397Z,-5.87
2016-02-03T03:49:49.381Z,-5.87
2016-02-03T03:50:04.194Z,-5.94
2016-02-03T03:50:49.697Z,-5.95
2016-02-03T03:51:03.931Z,-5.94
2016-02-03T03:51:31.856Z,-5.91
2016-02-03T03:52:14.437Z,-5.98
2016-02-03T03:52:28.406Z,-6.02
2016-02-03T03:52:45.874Z,-5.98
2016-02-03T03:53:00.140Z,-6.01
2016-02-03T03:53:17.846Z,-5.97
2016-02-03T03:53:32.190Z,-5.95
2016-02-03T03:53:46.127Z,-5.94
2016-02-03T03:53:59.956Z,-5.94
2016-02-03T03:54:13.927Z,-6.01
2016-02-03T03:54:31.005Z,-6.01
2016-02-03T03:54:45.255Z,-6.01
2016-02-03T03:55:05.302Z,-5.98
2016-02-03T03:55:22.618Z,-6.01
2016-02-03T03:55:51.446Z,-5.91
2016-02-03T03:56:05.165Z,-5.94
2016-02-03T03:56:19.465Z,-5.94
2016-02-03T03:56:47.261Z,-5.97
2016-02-03T03:57:00.918Z,-5.94
2016-02-03T03:57:31.795Z,-5.94
2016-02-03T03:57:48.404Z,-5.87
2016-02-03T03:58:02.420Z,-5.87
2016-02-03T03:58:16.627Z,-5.91
2016-02-03T03:58:30.439Z,-5.87
2016-02-03T03:58:58.486Z,-5.95
2016-02-03T03:59:12.330Z,-5.83
2016-02-03T03:59:26.333Z,-5.87
2016-02-03T03:59:40.614Z,-5.86
2016-02-03T03:59:57.411Z,-5.92
2016-02-03T04:00:42.273Z,-5.84
2016-02-03T04:00:56.008Z,-5.87
2016-02-03T04:01:09.789Z,-5.86
2016-02-03T04:01:38.525Z,-5.86
2016-02-03T04:01:52.494Z,-5.86
2016-02-03T04:02:20.622Z,-5.86
2016-02-03T04:02:34.653Z,-5.81
2016-02-03T04:02:48.435Z,-5.87
2016-02-03T04:03:15.972Z,-5.92
2016-02-03T04:03:29.425Z,-5.8
2016-02-03T04:03:43.706Z,-5.84
2016-02-03T04:03:57.472Z,-5.8
2016-02-03T04:04:11.472Z,-5.81
2016-02-03T04:04:25.320Z,-5.91
2016-02-03T04:04:39.210Z,-5.94
2016-02-03T04:04:53.648Z,-5.89
2016-02-03T04:05:07.632Z,-5.79
2016-02-03T04:05:24.306Z,-5.92
2016-02-03T04:06:06.431Z,-5.87
2016-02-03T04:06:20.324Z,-5.91
2016-02-03T04:06:34.074Z,-5.95
2016-02-03T04:06:51.120Z,-5.95
2016-02-03T04:07:05.308Z,-5.91
2016-02-03T04:07:22.374Z,-5.86
2016-02-03T04:07:36.390Z,-5.79
2016-02-03T04:08:24.033Z,-5.83
2016-02-03T04:08:37.595Z,-5.83
2016-02-03T04:09:05.720Z,-5.84
2016-02-03T04:09:19.770Z,-5.89
2016-02-03T04:09:57.364Z,-5.83
2016-02-03T04:10:25.148Z,-5.81
2016-02-03T04:10:39.476Z,-5.86
2016-02-03T04:11:07.664Z,-5.86
2016-02-03T04:11:22.151Z,-5.86